Time;durP1;ratioP1;P1;durP2;ratioP2;P2;SDS_P1;SDS_P2;PMS_P1;PMS_P2;Temp;Humidity;BMP_temperature;BMP_pressure;BME280_temperature;BME280_humidity;BME280_pressure;Samples;Min_cycle;Max_cycle;Signal;HPM_P1;HPM_P2
2021/01/23 00:01:50;;;;;;;12.05;7.65;;;5.70;79.50;;;;;;5066535;28;20081;-63
2021/01/23 00:04:16;;;;;;;9.45;8.10;;;5.70;79.80;;;;;;5058679;28;20045;-65
2021/01/23 00:06:42;;;;;;;10.52;8.63;;;5.60;79.80;;;;;;5064819;28;20037;-63
2021/01/23 00:09:07;;;;;;;11.85;9.65;;;5.60;79.70;;;;;;5063887;22;20502;-63
2021/01/23 00:11:33;;;;;;;8.88;7.70;;;5.70;79.60;;;;;;5047905;28;20175;-62
2021/01/23 00:13:58;;;;;;;12.57;8.70;;;5.60;79.80;;;;;;5042256;28;20048;-61
2021/01/23 00:16:24;;;;;;;9.77;7.57;;;5.40;80.40;;;;;;5043301;28;20124;-59
2021/01/23 00:18:50;;;;;;;10.63;8.95;;;5.30;80.60;;;;;;5017201;28;20037;-62
2021/01/23 00:21:15;;;;;;;10.75;8.68;;;5.30;80.70;;;;;;5058711;28;20029;-59
2021/01/23 00:23:41;;;;;;;11.95;8.55;;;5.30;80.80;;;;;;5045414;28;20048;-57
2021/01/23 00:26:06;;;;;;;10.40;8.25;;;5.30;80.90;;;;;;5050862;28;20051;-59
2021/01/23 00:28:33;;;;;;;9.95;8.00;;;5.30;80.90;;;;;;5057146;28;20045;-60
2021/01/23 00:31:00;;;;;;;11.07;8.65;;;5.40;80.50;;;;;;5067189;28;20099;-58
2021/01/23 00:33:25;;;;;;;12.93;9.00;;;5.50;80.30;;;;;;5054467;28;20391;-56
2021/01/23 00:35:51;;;;;;;10.32;8.13;;;5.60;80.00;;;;;;5066659;28;20032;-58
2021/01/23 00:38:17;;;;;;;12.23;9.15;;;5.60;79.80;;;;;;5064800;28;20039;-57
2021/01/23 00:40:42;;;;;;;10.07;8.20;;;5.70;79.70;;;;;;5057923;28;20102;-58
2021/01/23 00:43:08;;;;;;;10.25;8.65;;;5.70;79.60;;;;;;5041747;28;20140;-56
2021/01/23 00:45:34;;;;;;;13.00;8.80;;;5.70;79.40;;;;;;5069247;28;20462;-56
2021/01/23 00:48:10;;;;;;;9.77;8.68;;;5.80;79.40;;;;;;5063265;28;20044;-57
2021/01/23 00:50:35;;;;;;;10.30;8.35;;;5.80;79.50;;;;;;5060504;28;20065;-55
2021/01/23 00:53:01;;;;;;;14.32;8.30;;;5.80;79.40;;;;;;5037045;28;20055;-59
2021/01/23 00:55:27;;;;;;;11.73;8.40;;;5.70;79.20;;;;;;5069483;28;20078;-56
2021/01/23 00:57:52;;;;;;;10.73;8.00;;;5.70;79.30;;;;;;5062256;28;20514;-55
2021/01/23 01:00:18;;;;;;;9.30;7.82;;;5.60;79.50;;;;;;5062968;28;20037;-60
2021/01/23 01:02:44;;;;;;;10.23;7.35;;;5.60;79.70;;;;;;5054719;28;20052;-56
2021/01/23 01:05:10;;;;;;;8.60;7.47;;;5.50;79.70;;;;;;5070381;28;20033;-55
2021/01/23 01:07:36;;;;;;;11.07;8.38;;;5.50;79.80;;;;;;5058576;28;20458;-59
2021/01/23 01:10:02;;;;;;;11.02;8.15;;;5.50;79.50;;;;;;5048494;28;20164;-60
2021/01/23 01:12:28;;;;;;;11.02;7.93;;;5.40;79.40;;;;;;5047204;28;20045;-60
2021/01/23 01:14:54;;;;;;;10.93;8.02;;;5.30;79.90;;;;;;5048737;28;20116;-59
2021/01/23 01:17:19;;;;;;;10.35;8.45;;;5.30;80.30;;;;;;5052148;28;20096;-61
2021/01/23 01:19:45;;;;;;;11.27;8.63;;;5.20;80.40;;;;;;5048132;28;20032;-62
2021/01/23 01:22:10;;;;;;;12.00;8.02;;;5.20;80.40;;;;;;5048351;28;21011;-62
2021/01/23 01:24:37;;;;;;;10.02;8.10;;;5.20;81.00;;;;;;5046555;28;20090;-60
2021/01/23 01:27:03;;;;;;;13.02;8.50;;;5.10;81.30;;;;;;5057027;28;20071;-61
2021/01/23 01:29:28;;;;;;;11.13;8.60;;;5.10;81.50;;;;;;5068774;28;20479;-61
2021/01/23 01:31:54;;;;;;;10.43;8.32;;;5.10;81.50;;;;;;5065440;28;20043;-60
2021/01/23 01:34:22;;;;;;;9.93;8.73;;;5.10;81.60;;;;;;5056838;28;20274;-60
2021/01/23 01:36:48;;;;;;;10.35;8.45;;;5.00;81.80;;;;;;5069098;28;20513;-61
2021/01/23 01:39:13;;;;;;;11.52;8.95;;;5.00;82.20;;;;;;5038439;28;20075;-58
2021/01/23 01:41:39;;;;;;;11.23;9.32;;;5.00;82.00;;;;;;5062060;28;20036;-60
2021/01/23 01:44:06;;;;;;;10.98;9.20;;;5.00;81.90;;;;;;5063156;28;20036;-60
2021/01/23 01:46:32;;;;;;;11.48;9.35;;;5.00;82.20;;;;;;5057704;28;20053;-55
2021/01/23 01:49:00;;;;;;;10.95;9.00;;;4.90;82.20;;;;;;5053430;28;20458;-61
2021/01/23 01:51:26;;;;;;;11.27;9.60;;;5.00;82.10;;;;;;5047753;28;20029;-59
2021/01/23 01:53:53;;;;;;;11.25;9.00;;;5.00;82.30;;;;;;5029261;28;20143;-58
2021/01/23 01:56:18;;;;;;;12.43;9.63;;;5.10;81.80;;;;;;5030662;28;20079;-61
2021/01/23 01:58:44;;;;;;;11.40;10.05;;;5.20;81.50;;;;;;5048100;28;20037;-58
2021/01/23 02:01:10;;;;;;;13.18;10.27;;;5.20;81.60;;;;;;5053736;28;20321;-57
2021/01/23 02:04:00;;;;;;;13.23;10.02;;;5.20;81.10;;;;;;5027456;28;20036;-60
2021/01/23 02:06:53;;;;;;;11.93;10.63;;;5.20;81.20;;;;;;5047475;28;20032;-61
2021/01/23 02:09:38;;;;;;;14.20;10.68;;;5.10;81.50;;;;;;5044453;28;20128;-62
2021/01/23 02:12:03;;;;;;;11.77;9.30;;;5.20;81.40;;;;;;5046737;28;20036;-61
2021/01/23 02:14:56;;;;;;;13.80;10.52;;;5.30;81.00;;;;;;5047900;28;20287;-59
2021/01/23 02:17:29;;;;;;;13.13;10.27;;;5.40;80.80;;;;;;5029387;28;20035;-62
2021/01/23 02:20:23;;;;;;;15.93;9.70;;;5.40;80.50;;;;;;5045629;28;20542;-59
2021/01/23 02:23:13;;;;;;;12.98;10.20;;;5.40;80.50;;;;;;5043625;28;20029;-62
2021/01/23 02:26:00;;;;;;;13.05;10.80;;;5.40;80.40;;;;;;5047682;28;20045;-60
2021/01/23 02:29:05;;;;;;;12.50;11.20;;;5.30;80.70;;;;;;5063434;28;20035;-62
2021/01/23 02:31:58;;;;;;;15.68;10.80;;;5.30;80.80;;;;;;5043117;28;20429;-58
2021/01/23 02:34:25;;;;;;;12.85;10.77;;;5.20;81.00;;;;;;5051367;28;20072;-60
2021/01/23 02:36:53;;;;;;;13.95;11.07;;;5.30;80.90;;;;;;5056467;28;20025;-58
2021/01/23 02:39:20;;;;;;;13.15;11.25;;;5.20;81.20;;;;;;5069093;28;20032;-58
2021/01/23 02:41:49;;;;;;;13.07;10.90;;;5.30;81.00;;;;;;5040953;28;20042;-61
2021/01/23 02:44:14;;;;;;;14.52;11.38;;;5.30;81.00;;;;;;5063739;28;20037;-58
2021/01/23 02:46:40;;;;;;;13.35;11.10;;;5.30;80.60;;;;;;5070479;28;20058;-57
2021/01/23 02:49:06;;;;;;;14.15;11.50;;;5.30;80.90;;;;;;5047657;28;20043;-61
2021/01/23 02:51:42;;;;;;;14.13;10.80;;;5.30;80.90;;;;;;5040121;28;20121;-60
2021/01/23 02:54:16;;;;;;;13.80;10.57;;;5.40;80.70;;;;;;5059828;28;20075;-57
2021/01/23 02:56:43;;;;;;;12.82;10.25;;;5.50;80.40;;;;;;5068931;28;20036;-62
2021/01/23 02:59:11;;;;;;;14.30;10.93;;;5.40;80.40;;;;;;5056575;28;20048;-61
2021/01/23 03:01:41;;;;;;;12.48;10.48;;;5.40;80.30;;;;;;5059557;28;20056;-58
2021/01/23 03:04:07;;;;;;;12.65;10.55;;;5.40;80.00;;;;;;5060226;28;20535;-60
2021/01/23 03:06:36;;;;;;;13.50;9.93;;;5.30;80.30;;;;;;5065643;28;20142;-61
2021/01/23 03:09:25;;;;;;;13.15;10.80;;;5.40;80.30;;;;;;5053420;28;20063;-57
2021/01/23 03:11:51;;;;;;;12.15;10.68;;;5.30;80.70;;;;;;5049102;28;20491;-61
2021/01/23 03:14:18;;;;;;;12.15;10.40;;;5.30;80.80;;;;;;5028719;28;20036;-58
2021/01/23 03:16:51;;;;;;;11.85;9.75;;;5.30;81.00;;;;;;5056476;28;20037;-59
2021/01/23 03:19:18;;;;;;;11.57;10.10;;;5.30;81.20;;;;;;5068196;28;20040;-60
2021/01/23 03:21:46;;;;;;;12.13;10.18;;;5.30;81.00;;;;;;5040311;28;20036;-58
2021/01/23 03:24:12;;;;;;;12.05;10.48;;;5.40;80.70;;;;;;5059934;28;20033;-61
2021/01/23 03:26:38;;;;;;;15.57;10.48;;;5.40;80.70;;;;;;5053061;28;20048;-59
2021/01/23 03:29:04;;;;;;;12.02;10.48;;;5.40;80.60;;;;;;5046141;28;20403;-60
2021/01/23 03:31:30;;;;;;;13.05;10.20;;;5.40;80.50;;;;;;5047995;28;20059;-62
2021/01/23 03:33:56;;;;;;;11.45;9.82;;;5.50;80.50;;;;;;5059759;28;20479;-59
2021/01/23 03:36:23;;;;;;;13.15;9.90;;;5.60;80.20;;;;;;5041318;28;20033;-59
2021/01/23 03:38:48;;;;;;;12.77;10.88;;;5.60;80.00;;;;;;5061753;28;20040;-61
2021/01/23 03:41:14;;;;;;;15.50;11.07;;;5.60;80.10;;;;;;5067625;28;20091;-61
2021/01/23 03:43:39;;;;;;;14.07;10.85;;;5.50;80.30;;;;;;5056863;28;20420;-60
2021/01/23 03:46:05;;;;;;;13.48;11.25;;;5.60;80.20;;;;;;5061346;28;20048;-61
2021/01/23 03:48:31;;;;;;;13.60;11.98;;;5.50;80.00;;;;;;5063366;28;20143;-61
2021/01/23 03:50:56;;;;;;;13.20;11.80;;;5.40;80.60;;;;;;5053165;28;20115;-58
2021/01/23 03:53:22;;;;;;;13.25;11.77;;;5.40;80.60;;;;;;5054712;28;20082;-59
2021/01/23 03:55:47;;;;;;;14.32;12.05;;;5.40;80.80;;;;;;5063331;28;20061;-60
2021/01/23 03:58:17;;;;;;;13.23;11.82;;;5.30;81.20;;;;;;5050473;28;20037;-60
2021/01/23 04:00:42;;;;;;;16.48;12.98;;;5.30;81.50;;;;;;5054801;28;20044;-61
2021/01/23 04:03:08;;;;;;;15.30;12.88;;;5.30;81.70;;;;;;5067469;28;20029;-61
2021/01/23 04:05:33;;;;;;;16.30;12.32;;;5.20;82.00;;;;;;5055893;28;20040;-61
2021/01/23 04:07:59;;;;;;;13.90;12.38;;;5.20;82.20;;;;;;5061614;28;20094;-59
2021/01/23 04:10:25;;;;;;;13.18;11.82;;;5.20;82.20;;;;;;5045580;28;20060;-57
2021/01/23 04:12:50;;;;;;;15.85;13.07;;;5.20;82.60;;;;;;5059527;28;20075;-58
2021/01/23 04:15:16;;;;;;;16.02;13.55;;;5.10;83.20;;;;;;5052780;28;20033;-61
2021/01/23 04:17:41;;;;;;;15.02;12.52;;;5.00;83.50;;;;;;5065335;28;20047;-60
2021/01/23 04:20:07;;;;;;;14.02;12.32;;;5.10;83.80;;;;;;5044835;28;20032;-62
2021/01/23 04:22:33;;;;;;;17.85;13.32;;;5.10;83.20;;;;;;5050290;28;20475;-63
2021/01/23 04:24:58;;;;;;;17.05;14.27;;;5.10;83.20;;;;;;5048913;28;20059;-63
2021/01/23 04:27:24;;;;;;;15.25;13.35;;;5.10;83.60;;;;;;5049932;28;20041;-65
2021/01/23 04:29:50;;;;;;;18.58;14.75;;;5.10;84.20;;;;;;5055730;28;20092;-64
2021/01/23 04:32:15;;;;;;;23.38;15.75;;;5.10;83.90;;;;;;5062670;28;20056;-63
2021/01/23 04:34:41;;;;;;;21.73;15.73;;;5.00;84.30;;;;;;5038236;28;20033;-65
2021/01/23 04:37:07;;;;;;;18.38;15.10;;;5.00;84.80;;;;;;5017688;28;20037;-65
2021/01/23 04:39:32;;;;;;;21.33;16.95;;;4.90;84.70;;;;;;5048700;28;20051;-68
2021/01/23 04:41:58;;;;;;;19.45;14.73;;;4.80;84.80;;;;;;5063590;28;20033;-67
2021/01/23 04:44:23;;;;;;;22.02;15.82;;;4.90;85.10;;;;;;5051437;28;20044;-65
2021/01/23 04:46:49;;;;;;;18.73;15.23;;;4.80;85.10;;;;;;5017520;28;20036;-65
2021/01/23 04:49:15;;;;;;;21.55;16.63;;;4.80;85.20;;;;;;5033537;28;20033;-67
2021/01/23 04:51:40;;;;;;;22.23;16.40;;;4.80;85.20;;;;;;5051458;28;20492;-65
2021/01/23 04:54:06;;;;;;;19.25;15.23;;;4.80;85.30;;;;;;5033405;28;20043;-65
2021/01/23 04:56:31;;;;;;;19.65;15.20;;;4.70;85.40;;;;;;5051495;28;20036;-67
2021/01/23 04:58:57;;;;;;;22.52;15.70;;;4.70;86.70;;;;;;5051176;28;20068;-67
2021/01/23 05:01:22;;;;;;;21.23;15.98;;;4.60;86.40;;;;;;5013319;28;20037;-65
2021/01/23 05:03:55;;;;;;;20.80;15.88;;;4.60;86.50;;;;;;5025384;28;20061;-66
2021/01/23 05:06:21;;;;;;;23.88;17.23;;;4.70;86.20;;;;;;5033524;28;20491;-68
2021/01/23 05:08:47;;;;;;;24.13;17.30;;;4.60;86.10;;;;;;5051106;28;20119;-65
2021/01/23 05:11:12;;;;;;;26.65;17.58;;;4.60;85.70;;;;;;5051270;28;20040;-66
2021/01/23 05:13:38;;;;;;;26.23;17.95;;;4.50;86.00;;;;;;5050911;28;20044;-67
2021/01/23 05:16:22;;;;;;;32.42;19.05;;;4.30;86.10;;;;;;5050889;28;20033;-67
2021/01/23 05:18:56;;;;;;;24.50;18.48;;;4.20;87.10;;;;;;5033365;28;20162;-65
2021/01/23 05:21:21;;;;;;;25.80;17.83;;;4.20;86.20;;;;;;5051117;28;20072;-68
2021/01/23 05:24:01;;;;;;;25.58;18.15;;;4.10;86.60;;;;;;5016661;28;20068;-65
2021/01/23 05:26:27;;;;;;;28.50;19.13;;;4.00;86.40;;;;;;5053055;28;20025;-65
2021/01/23 05:28:52;;;;;;;24.08;16.83;;;3.90;87.20;;;;;;5036423;28;20035;-65
2021/01/23 05:31:18;;;;;;;29.27;19.00;;;3.80;87.90;;;;;;5036868;28;20041;-66
2021/01/23 05:33:43;;;;;;;26.50;17.52;;;3.90;87.70;;;;;;5054434;28;20171;-65
2021/01/23 05:36:11;;;;;;;29.90;18.10;;;3.90;87.70;;;;;;5036277;28;20124;-65
2021/01/23 05:38:39;;;;;;;25.92;16.35;;;3.90;87.30;;;;;;5054405;28;20036;-65
2021/01/23 05:41:04;;;;;;;25.92;17.38;;;3.80;87.00;;;;;;5054181;28;20017;-65
2021/01/23 05:43:32;;;;;;;29.42;19.73;;;3.70;87.90;;;;;;5036211;28;20109;-65
2021/01/23 05:45:59;;;;;;;27.25;18.00;;;3.50;88.00;;;;;;5054314;28;20064;-64
2021/01/23 05:48:25;;;;;;;27.05;17.45;;;3.50;88.40;;;;;;5054552;28;20052;-64
2021/01/23 05:50:51;;;;;;;30.35;18.63;;;3.50;88.90;;;;;;5056790;28;20036;-65
2021/01/23 05:53:18;;;;;;;27.67;17.50;;;3.40;88.30;;;;;;5056389;28;20087;-65
2021/01/23 05:55:43;;;;;;;22.30;16.05;;;3.40;88.80;;;;;;5055062;28;20102;-65
2021/01/23 05:58:09;;;;;;;25.42;17.52;;;3.30;88.70;;;;;;5054194;28;20028;-65
2021/01/23 06:00:36;;;;;;;29.50;18.20;;;3.20;88.90;;;;;;5054081;28;20123;-65
2021/01/23 06:03:02;;;;;;;29.30;17.30;;;3.10;89.80;;;;;;5054065;28;20443;-64
2021/01/23 06:05:28;;;;;;;25.38;17.15;;;3.10;89.50;;;;;;5053696;28;20072;-66
2021/01/23 06:07:54;;;;;;;26.15;17.88;;;3.20;88.70;;;;;;5053408;28;20064;-66
2021/01/23 06:10:22;;;;;;;27.67;18.90;;;3.10;89.00;;;;;;5092243;22;20071;-68
2021/01/23 06:12:55;;;;;;;29.10;18.73;;;2.90;90.00;;;;;;5063200;28;20553;-68
2021/01/23 06:15:39;;;;;;;26.23;18.63;;;2.60;90.60;;;;;;5073595;28;20080;-67
2021/01/23 06:18:06;;;;;;;26.55;18.42;;;2.80;90.40;;;;;;5088251;28;20043;-67
2021/01/23 06:20:40;;;;;;;24.25;18.13;;;2.80;90.20;;;;;;5057032;28;20116;-67
2021/01/23 06:23:14;;;;;;;23.75;16.58;;;3.00;89.20;;;;;;5036458;28;20025;-68
2021/01/23 06:25:48;;;;;;;28.95;18.60;;;3.00;89.20;;;;;;5043290;28;20574;-68
2021/01/23 06:28:14;;;;;;;24.60;17.85;;;3.00;89.10;;;;;;5057282;28;20377;-67
2021/01/23 06:30:40;;;;;;;24.13;17.85;;;2.90;89.10;;;;;;5072938;28;20050;-67
2021/01/23 06:33:23;;;;;;;25.73;18.42;;;3.00;88.70;;;;;;5055798;28;20032;-68
2021/01/23 06:36:10;;;;;;;25.45;16.75;;;3.00;88.50;;;;;;5053397;28;20324;-68
2021/01/23 06:38:37;;;;;;;27.48;19.15;;;3.00;88.70;;;;;;5072044;28;20521;-68
2021/01/23 06:41:24;;;;;;;25.35;17.15;;;2.80;89.60;;;;;;5055796;28;20040;-68
2021/01/23 06:44:15;;;;;;;24.58;17.23;;;3.00;88.90;;;;;;5071472;28;20115;-67
2021/01/23 06:47:03;;;;;;;27.88;17.95;;;3.10;88.00;;;;;;5072737;28;20167;-67
2021/01/23 06:49:28;;;;;;;25.38;17.60;;;3.10;88.30;;;;;;5063522;28;20095;-66
2021/01/23 06:52:05;;;;;;;26.45;17.30;;;3.00;88.30;;;;;;5069712;28;20364;-66
2021/01/23 06:54:31;;;;;;;28.17;17.27;;;2.80;90.20;;;;;;5072913;28;20024;-66
2021/01/23 06:56:56;;;;;;;27.02;18.58;;;2.60;90.20;;;;;;5052069;28;20040;-66
2021/01/23 06:59:36;;;;;;;27.27;18.85;;;2.70;90.00;;;;;;5072740;28;20035;-67
2021/01/23 07:02:08;;;;;;;28.42;18.80;;;2.90;89.70;;;;;;5054665;28;20169;-66
2021/01/23 07:04:37;;;;;;;25.58;17.73;;;2.80;89.60;;;;;;5060955;28;20061;-67
2021/01/23 07:07:07;;;;;;;29.35;18.33;;;2.60;90.30;;;;;;5053180;28;20037;-67
2021/01/23 07:09:48;;;;;;;28.27;19.20;;;2.70;89.90;;;;;;5052592;28;20068;-67
2021/01/23 07:12:49;;;;;;;25.50;18.10;;;2.80;90.30;;;;;;5035201;28;20110;-68
2021/01/23 07:15:35;;;;;;;28.23;19.00;;;2.90;89.50;;;;;;5052304;28;20029;-68
2021/01/23 07:18:13;;;;;;;28.17;18.75;;;2.80;90.10;;;;;;5066662;28;20032;-67
2021/01/23 07:20:39;;;;;;;29.95;20.52;;;2.80;90.00;;;;;;5055870;28;20028;-67
2021/01/23 07:23:05;;;;;;;27.65;18.67;;;2.90;89.30;;;;;;5073380;28;20028;-67
2021/01/23 07:25:31;;;;;;;28.75;18.95;;;2.90;89.00;;;;;;5041799;28;20064;-67
2021/01/23 07:27:57;;;;;;;29.33;18.85;;;3.00;89.30;;;;;;5056720;28;20040;-68
2021/01/23 07:30:23;;;;;;;25.35;17.95;;;2.90;89.10;;;;;;5054842;28;20045;-67
2021/01/23 07:32:49;;;;;;;31.13;20.08;;;3.00;89.10;;;;;;5058913;28;20392;-67
2021/01/23 07:35:16;;;;;;;28.30;18.92;;;3.10;88.50;;;;;;5052280;28;20041;-67
2021/01/23 07:37:51;;;;;;;26.50;18.58;;;3.10;88.70;;;;;;5053850;28;20441;-67
2021/01/23 07:40:21;;;;;;;26.63;18.05;;;3.20;88.00;;;;;;5052427;28;20039;-68
2021/01/23 07:42:48;;;;;;;27.50;17.13;;;3.20;87.60;;;;;;5054798;28;20073;-68
2021/01/23 07:45:15;;;;;;;27.17;18.38;;;3.20;87.80;;;;;;5056897;28;20037;-68
2021/01/23 07:47:41;;;;;;;29.98;18.02;;;3.00;88.90;;;;;;5052466;28;20094;-67
2021/01/23 07:50:08;;;;;;;31.17;19.58;;;2.80;89.60;;;;;;5055222;28;20040;-68
2021/01/23 07:52:35;;;;;;;31.70;19.27;;;2.80;89.90;;;;;;5054946;28;20028;-68
2021/01/23 07:55:06;;;;;;;29.45;18.02;;;2.70;90.20;;;;;;5053950;28;20372;-68
2021/01/23 07:57:34;;;;;;;26.65;17.73;;;2.50;90.60;;;;;;5071279;28;20032;-67
2021/01/23 08:00:00;;;;;;;26.67;17.65;;;2.50;90.70;;;;;;5067375;28;20384;-68
2021/01/23 08:02:26;;;;;;;24.13;17.15;;;2.70;90.60;;;;;;5069288;28;20037;-67
2021/01/23 08:04:53;;;;;;;28.10;17.38;;;2.90;90.10;;;;;;5071327;28;20037;-67
2021/01/23 08:07:32;;;;;;;27.60;17.92;;;2.90;89.60;;;;;;5072036;28;20040;-67
2021/01/23 08:10:06;;;;;;;28.35;17.48;;;3.10;89.10;;;;;;5070764;28;20090;-67
2021/01/23 08:12:33;;;;;;;25.55;17.48;;;3.20;89.30;;;;;;5072239;28;20052;-66
2021/01/23 08:14:58;;;;;;;28.80;16.90;;;3.20;89.10;;;;;;5048087;28;20025;-66
2021/01/23 08:17:49;;;;;;;28.10;17.10;;;3.20;88.40;;;;;;5051739;28;20356;-66
2021/01/23 08:20:17;;;;;;;25.38;17.13;;;3.30;88.90;;;;;;5058276;28;20029;-67
2021/01/23 08:22:55;;;;;;;31.88;19.25;;;3.30;88.20;;;;;;5070298;28;20068;-67
2021/01/23 08:25:23;;;;;;;36.35;18.92;;;3.30;88.20;;;;;;5043475;28;20029;-66
2021/01/23 08:27:48;;;;;;;25.80;17.98;;;3.20;88.90;;;;;;5067475;28;20037;-67
2021/01/23 08:30:15;;;;;;;28.33;18.95;;;3.30;89.10;;;;;;5071822;28;20101;-67
2021/01/23 08:32:41;;;;;;;26.05;17.70;;;3.30;89.10;;;;;;5070195;28;20158;-67
2021/01/23 08:35:07;;;;;;;30.00;19.23;;;3.40;88.90;;;;;;5069787;28;20054;-66
2021/01/23 08:37:32;;;;;;;30.15;18.77;;;3.50;88.60;;;;;;5063710;28;20059;-66
2021/01/23 08:39:58;;;;;;;27.15;18.45;;;3.40;88.30;;;;;;5071562;28;20029;-67
2021/01/23 08:42:24;;;;;;;32.45;18.45;;;3.40;88.50;;;;;;5071646;28;20701;-67
2021/01/23 08:44:50;;;;;;;37.60;20.02;;;3.50;88.70;;;;;;5054092;28;20040;-66
2021/01/23 08:47:16;;;;;;;29.00;18.45;;;3.40;88.60;;;;;;5071490;28;20024;-66
2021/01/23 08:49:42;;;;;;;35.28;20.70;;;3.50;88.40;;;;;;5071233;28;20459;-67
2021/01/23 08:52:09;;;;;;;29.98;19.98;;;3.50;89.30;;;;;;5035651;28;20090;-66
2021/01/23 08:54:35;;;;;;;28.58;18.73;;;3.50;88.40;;;;;;5033876;28;20045;-66
2021/01/23 08:57:03;;;;;;;30.60;19.38;;;3.60;88.60;;;;;;5051948;28;20394;-67
2021/01/23 08:59:28;;;;;;;29.60;19.35;;;3.70;88.30;;;;;;5053499;28;20043;-67
2021/01/23 09:01:54;;;;;;;29.00;17.98;;;3.70;88.60;;;;;;5066800;28;20040;-67
2021/01/23 09:04:20;;;;;;;25.85;17.77;;;3.80;87.80;;;;;;5061912;28;20044;-66
2021/01/23 09:06:45;;;;;;;25.63;17.63;;;3.70;88.50;;;;;;5037415;28;20033;-66
2021/01/23 09:09:13;;;;;;;34.97;20.35;;;3.70;88.20;;;;;;5056312;28;20098;-67
2021/01/23 09:11:38;;;;;;;28.05;18.83;;;3.50;89.60;;;;;;5021246;28;20044;-69
2021/01/23 09:14:05;;;;;;;25.00;16.73;;;3.50;89.30;;;;;;5056060;28;20085;-67
2021/01/23 09:16:42;;;;;;;25.90;16.27;;;3.60;89.60;;;;;;5058240;28;20056;-65
2021/01/23 09:19:08;;;;;;;23.83;16.35;;;3.50;90.00;;;;;;5075357;28;20027;-65
2021/01/23 09:21:34;;;;;;;25.92;16.10;;;3.70;89.70;;;;;;5068359;28;20033;-65
2021/01/23 09:23:59;;;;;;;24.52;15.43;;;3.80;88.80;;;;;;5055059;28;20377;-67
2021/01/23 09:26:25;;;;;;;23.80;15.75;;;3.80;89.40;;;;;;5022797;28;20041;-65
2021/01/23 09:28:50;;;;;;;29.88;16.10;;;3.90;89.90;;;;;;5042119;28;20112;-66
2021/01/23 09:31:16;;;;;;;20.58;14.60;;;3.90;90.10;;;;;;5056795;28;20446;-65
2021/01/23 09:33:42;;;;;;;24.33;15.43;;;4.10;88.40;;;;;;5036983;28;20136;-65
2021/01/23 09:36:08;;;;;;;22.25;16.52;;;4.10;90.30;;;;;;5053914;28;20033;-65
2021/01/23 09:38:33;;;;;;;23.90;16.13;;;4.10;90.00;;;;;;5057608;28;20044;-65
2021/01/23 09:40:59;;;;;;;25.58;15.90;;;4.10;89.10;;;;;;5072978;28;20036;-64
2021/01/23 09:43:24;;;;;;;19.00;13.48;;;4.10;89.80;;;;;;5056747;28;20077;-64
2021/01/23 09:45:50;;;;;;;20.45;14.02;;;4.30;87.50;;;;;;5073287;28;20104;-64
2021/01/23 09:48:19;;;;;;;19.95;12.60;;;4.20;87.70;;;;;;5059403;28;20040;-65
2021/01/23 09:50:45;;;;;;;17.70;11.73;;;4.40;86.80;;;;;;5061635;28;20024;-66
2021/01/23 09:53:10;;;;;;;21.58;13.20;;;4.30;86.80;;;;;;5072714;28;20542;-63
2021/01/23 09:55:36;;;;;;;19.17;12.85;;;4.40;88.50;;;;;;5072062;28;20060;-63
2021/01/23 09:58:02;;;;;;;18.75;11.98;;;4.60;88.00;;;;;;5074304;28;20028;-64
2021/01/23 10:00:28;;;;;;;18.05;11.15;;;4.70;87.60;;;;;;5055882;28;20372;-64
2021/01/23 10:02:53;;;;;;;18.15;11.98;;;4.60;86.30;;;;;;5036667;28;20075;-65
2021/01/23 10:05:19;;;;;;;16.35;10.85;;;4.50;86.30;;;;;;5036114;28;20116;-65
2021/01/23 10:07:47;;;;;;;13.88;10.00;;;4.40;86.50;;;;;;5058906;28;20190;-66
2021/01/23 10:10:13;;;;;;;16.13;9.80;;;4.40;86.70;;;;;;5039229;28;20083;-66
2021/01/23 10:12:41;;;;;;;15.90;8.25;;;4.20;86.90;;;;;;5071948;28;20064;-66
2021/01/23 10:15:07;;;;;;;15.88;9.10;;;4.00;87.30;;;;;;5059547;28;20486;-66
2021/01/23 10:17:33;;;;;;;14.57;9.00;;;4.00;87.80;;;;;;5073919;28;20033;-65
2021/01/23 10:19:58;;;;;;;11.63;8.73;;;3.90;88.90;;;;;;5038398;28;20169;-66
2021/01/23 10:22:24;;;;;;;12.32;8.73;;;4.10;88.10;;;;;;5073507;28;20039;-66
2021/01/23 10:24:50;;;;;;;13.90;9.05;;;4.10;87.90;;;;;;5073543;28;20039;-66
2021/01/23 10:27:15;;;;;;;13.18;9.30;;;4.00;87.70;;;;;;5037222;28;20055;-66
2021/01/23 10:29:41;;;;;;;13.30;9.00;;;3.80;89.20;;;;;;5064628;28;20042;-65
2021/01/23 10:32:07;;;;;;;12.38;9.18;;;4.10;88.60;;;;;;5057013;28;20122;-63
2021/01/23 10:34:32;;;;;;;13.98;8.43;;;4.20;88.50;;;;;;5052307;28;20037;-64
2021/01/23 10:36:58;;;;;;;12.90;9.40;;;4.60;88.20;;;;;;5044186;28;20029;-63
2021/01/23 10:39:26;;;;;;;14.65;8.85;;;4.70;85.60;;;;;;5034925;28;20045;-64
2021/01/23 10:41:52;;;;;;;13.10;8.73;;;4.60;85.70;;;;;;5034885;28;20043;-64
2021/01/23 10:44:17;;;;;;;12.10;8.80;;;4.80;86.80;;;;;;5052281;28;20211;-64
2021/01/23 10:46:43;;;;;;;12.63;8.80;;;5.00;85.70;;;;;;5049100;28;20031;-64
2021/01/23 10:49:09;;;;;;;11.20;8.50;;;5.20;84.50;;;;;;5057708;28;20099;-64
2021/01/23 10:51:34;;;;;;;13.52;9.32;;;5.40;84.10;;;;;;5055572;28;20432;-64
2021/01/23 10:54:00;;;;;;;13.80;10.15;;;5.50;83.40;;;;;;5072949;28;20078;-64
2021/01/23 10:56:25;;;;;;;19.27;12.80;;;5.40;83.10;;;;;;5054537;28;20127;-64
2021/01/23 10:58:51;;;;;;;14.90;10.48;;;5.50;82.20;;;;;;5064891;28;20085;-64
2021/01/23 11:01:16;;;;;;;12.95;9.55;;;5.40;82.90;;;;;;5071476;28;20530;-64
2021/01/23 11:03:42;;;;;;;14.80;10.20;;;5.40;82.50;;;;;;5047851;28;20036;-64
2021/01/23 11:06:08;;;;;;;15.20;10.82;;;5.30;83.80;;;;;;5054120;28;20064;-64
2021/01/23 11:08:33;;;;;;;13.73;10.45;;;5.30;83.80;;;;;;5054853;28;20032;-64
2021/01/23 11:11:01;;;;;;;17.27;11.02;;;5.40;83.80;;;;;;5068004;28;20037;-64
2021/01/23 11:13:27;;;;;;;18.52;11.25;;;5.30;84.40;;;;;;5065166;28;20083;-64
2021/01/23 11:15:53;;;;;;;15.18;11.80;;;5.40;83.40;;;;;;5054746;28;20492;-63
2021/01/23 11:18:18;;;;;;;19.30;12.05;;;5.30;83.60;;;;;;5036707;28;20052;-63
2021/01/23 11:20:44;;;;;;;16.48;11.68;;;4.80;85.60;;;;;;5054536;28;20399;-65
2021/01/23 11:23:10;;;;;;;16.80;12.30;;;4.70;85.80;;;;;;5053006;28;20040;-64
2021/01/23 11:25:36;;;;;;;15.93;12.05;;;4.90;85.70;;;;;;5052570;28;20045;-64
2021/01/23 11:28:01;;;;;;;15.93;10.98;;;5.00;85.30;;;;;;5035070;28;20037;-63
2021/01/23 11:30:27;;;;;;;14.48;10.75;;;4.80;86.00;;;;;;5054760;28;20032;-65
2021/01/23 11:32:53;;;;;;;17.48;12.55;;;5.00;85.40;;;;;;5052139;28;20090;-62
2021/01/23 11:35:20;;;;;;;16.52;11.95;;;5.00;85.80;;;;;;5035726;28;20125;-65
2021/01/23 11:37:46;;;;;;;20.58;11.68;;;5.10;85.40;;;;;;5050810;28;20033;-63
2021/01/23 11:40:15;;;;;;;22.38;14.85;;;5.20;84.90;;;;;;5053668;28;20044;-63
2021/01/23 11:42:41;;;;;;;15.50;12.05;;;5.10;84.70;;;;;;5072135;28;20040;-64
2021/01/23 11:45:08;;;;;;;17.08;11.75;;;5.10;84.50;;;;;;5052893;28;20036;-64
2021/01/23 11:47:34;;;;;;;17.65;12.90;;;5.10;84.70;;;;;;5069793;28;20047;-63
2021/01/23 11:50:00;;;;;;;17.85;12.07;;;5.10;84.50;;;;;;5070919;28;20044;-64
2021/01/23 11:52:28;;;;;;;18.10;11.70;;;5.10;85.10;;;;;;5072198;28;20575;-64
2021/01/23 11:54:54;;;;;;;15.57;12.10;;;5.10;85.00;;;;;;5070993;28;20124;-63
2021/01/23 11:57:19;;;;;;;17.92;11.70;;;5.10;85.30;;;;;;5070009;28;20128;-64
2021/01/23 11:59:45;;;;;;;21.17;13.40;;;5.20;85.20;;;;;;5054080;28;20052;-64
2021/01/23 12:02:10;;;;;;;17.05;12.20;;;5.30;84.00;;;;;;5066801;28;20336;-65
2021/01/23 12:04:36;;;;;;;14.77;11.85;;;5.40;83.50;;;;;;5040225;28;20431;-65
2021/01/23 12:07:02;;;;;;;17.33;12.43;;;5.50;83.60;;;;;;5042725;28;20036;-64
2021/01/23 12:09:28;;;;;;;16.08;12.60;;;5.60;84.00;;;;;;5058076;28;20495;-64
2021/01/23 12:11:54;;;;;;;15.50;12.57;;;5.60;83.50;;;;;;5072733;28;20383;-64
2021/01/23 12:14:19;;;;;;;18.88;12.40;;;5.70;82.10;;;;;;5063796;28;20037;-64
2021/01/23 12:16:45;;;;;;;21.65;14.65;;;5.70;82.10;;;;;;5070203;28;20047;-64
2021/01/23 12:19:11;;;;;;;19.65;14.13;;;5.80;82.00;;;;;;5075837;28;20379;-64
2021/01/23 12:21:36;;;;;;;19.50;13.60;;;5.80;82.20;;;;;;5068816;28;20378;-64
2021/01/23 12:24:03;;;;;;;21.38;14.45;;;5.90;82.30;;;;;;5066986;28;20031;-64
2021/01/23 12:26:28;;;;;;;26.10;15.65;;;6.00;82.40;;;;;;5054273;28;20032;-65
2021/01/23 12:28:54;;;;;;;19.55;15.15;;;5.90;82.60;;;;;;5070245;28;20552;-65
2021/01/23 12:31:20;;;;;;;23.27;15.95;;;5.90;82.30;;;;;;5066513;28;20033;-64
2021/01/23 12:33:46;;;;;;;23.38;16.50;;;5.50;83.70;;;;;;5040327;28;20541;-64
2021/01/23 12:36:12;;;;;;;24.00;16.27;;;5.20;86.30;;;;;;5059661;28;20135;-64
2021/01/23 12:38:38;;;;;;;22.55;15.55;;;5.20;86.70;;;;;;5057102;28;20052;-63
2021/01/23 12:41:04;;;;;;;24.23;15.75;;;5.10;87.40;;;;;;5038192;28;20041;-64
2021/01/23 12:43:30;;;;;;;22.58;16.40;;;5.20;87.00;;;;;;5055727;28;20071;-64
2021/01/23 12:45:56;;;;;;;24.60;15.88;;;5.30;86.50;;;;;;5060473;28;20101;-64